Time;durP1;ratioP1;P1;durP2;ratioP2;P2;SDS_P1;SDS_P2;PMS_P1;PMS_P2;Temp;Humidity;BMP_temperature;BMP_pressure;BME280_temperature;BME280_humidity;BME280_pressure;Samples;Min_cycle;Max_cycle;Signal;HPM_P1;HPM_P2
2022/12/30 00:00:32;;;;;;;15.20;2.73;;;5.50;99.90;;;;;;5034061;28;20640;-58
2022/12/30 00:02:57;;;;;;;16.90;2.90;;;5.50;99.90;;;;;;5033661;28;20224;-57
2022/12/30 00:05:23;;;;;;;25.60;3.63;;;5.60;99.90;;;;;;5034004;28;20178;-57
2022/12/30 00:07:49;;;;;;;20.30;3.97;;;5.60;99.90;;;;;;5033940;28;20173;-57
2022/12/30 00:10:14;;;;;;;21.47;3.23;;;5.50;99.90;;;;;;5033820;28;20182;-58
2022/12/30 00:35:20;;;;;;;20.50;2.00;;;6.30;99.90;;;;;;5023880;28;20240;-58
2022/12/30 00:37:46;;;;;;;20.50;2.03;;;;;;;;;;5033074;28;20181;-58
2022/12/30 00:40:13;;;;;;;18.87;2.00;;;6.50;99.90;;;;;;5032599;28;20186;-58
2022/12/30 00:45:25;;;;;;;22.13;2.10;;;6.90;99.90;;;;;;5033049;28;20248;-58
2022/12/30 00:47:51;;;;;;;11.70;2.00;;;7.10;99.90;;;;;;5032872;28;20548;-58
2022/12/30 00:58:29;;;;;;;16.03;1.90;;;7.20;99.90;;;;;;5032149;28;20204;-58
2022/12/30 01:00:55;;;;;;;20.17;2.23;;;7.30;99.90;;;;;;5033108;28;20628;-58
2022/12/30 01:03:21;;;;;;;14.30;1.70;;;7.30;99.90;;;;;;5032777;28;20223;-58
2022/12/30 01:05:47;;;;;;;17.73;2.87;;;;;;;;;;5032357;28;20181;-58
2022/12/30 01:08:13;;;;;;;19.30;2.00;;;7.50;99.90;;;;;;5030320;28;20178;-58
2022/12/30 01:10:39;;;;;;;17.80;1.77;;;7.50;99.90;;;;;;5030988;28;20181;-58
2022/12/30 01:13:05;;;;;;;29.60;2.80;;;7.60;99.90;;;;;;5032352;28;20638;-58
2022/12/30 01:15:31;;;;;;;16.70;2.73;;;7.60;99.90;;;;;;5031676;28;20174;-59
2022/12/30 01:17:56;;;;;;;16.13;1.97;;;8.00;99.90;;;;;;5032277;28;20177;-58
2022/12/30 01:20:22;;;;;;;22.13;2.33;;;8.20;99.90;;;;;;5031967;28;20174;-58
2022/12/30 01:22:48;;;;;;;16.83;2.07;;;9.50;99.90;;;;;;5032216;28;20248;-58
2022/12/30 01:25:13;;;;;;;19.43;2.03;;;8.30;99.90;;;;;;5031905;28;20201;-58
2022/12/30 01:27:39;;;;;;;21.87;2.37;;;;;;;;;;5006168;28;20209;-57
2022/12/30 01:30:06;;;;;;;20.97;1.87;;;8.60;99.90;;;;;;5031586;28;21105;-58
2022/12/30 01:32:31;;;;;;;29.37;2.57;;;8.50;99.90;;;;;;5031599;28;20208;-56
2022/12/30 01:34:57;;;;;;;23.53;2.67;;;8.50;99.90;;;;;;5027737;28;20652;-58
2022/12/30 01:37:24;;;;;;;20.90;2.70;;;8.70;99.90;;;;;;5031427;28;20182;-58
2022/12/30 01:39:49;;;;;;;28.97;2.40;;;8.80;99.90;;;;;;5032150;28;20162;-57
2022/12/30 01:42:21;;;;;;;10.00;1.53;;;8.90;99.90;;;;;;5031663;28;20176;-58
2022/12/30 01:45:26;;;;;;;22.70;2.37;;;9.00;99.90;;;;;;5031009;28;20208;-57
2022/12/30 01:48:29;;;;;;;14.53;2.17;;;9.00;99.90;;;;;;5031265;28;20290;-57
2022/12/30 01:51:01;;;;;;;21.53;1.90;;;9.10;99.90;;;;;;5030293;28;20281;-57
2022/12/30 01:53:27;;;;;;;17.83;2.10;;;9.30;99.90;;;;;;5031645;28;20174;-57
2022/12/30 01:55:58;;;;;;;27.33;2.43;;;9.20;99.90;;;;;;5031552;28;20181;-58
2022/12/30 01:58:46;;;;;;;17.60;1.97;;;9.30;99.90;;;;;;5031544;28;20158;-58
2022/12/30 02:01:12;;;;;;;8.03;1.20;;;9.30;99.90;;;;;;5030626;28;20169;-58
2022/12/30 02:03:48;;;;;;;18.30;2.23;;;9.40;99.90;;;;;;5031313;28;20253;-58
2022/12/30 02:06:20;;;;;;;26.30;2.40;;;9.40;99.90;;;;;;5031173;28;20193;-58
2022/12/30 02:08:45;;;;;;;10.13;1.57;;;9.40;99.90;;;;;;5031377;28;20191;-58
2022/12/30 02:11:12;;;;;;;18.53;2.33;;;;;;;;;;5031442;28;20177;-56
2022/12/30 02:13:37;;;;;;;23.47;2.53;;;9.80;99.90;;;;;;5031179;28;20170;-58
2022/12/30 02:16:21;;;;;;;21.47;2.57;;;9.50;99.90;;;;;;5030962;28;20180;-58
2022/12/30 02:18:50;;;;;;;19.67;2.40;;;;;;;;;;5031352;28;20287;-58
2022/12/30 02:21:37;;;;;;;21.80;3.07;;;9.60;99.90;;;;;;5028883;28;20166;-58
2022/12/30 02:24:24;;;;;;;12.43;2.27;;;9.60;99.90;;;;;;5029664;28;20206;-58
2022/12/30 02:27:27;;;;;;;13.30;1.70;;;9.60;99.90;;;;;;5030949;28;20200;-57
2022/12/30 02:30:15;;;;;;;14.50;2.13;;;9.70;99.90;;;;;;5028308;28;20644;-57
2022/12/30 02:33:13;;;;;;;9.40;1.60;;;9.70;99.90;;;;;;5031194;28;20178;-57
2022/12/30 02:35:48;;;;;;;7.70;1.33;;;9.60;99.90;;;;;;5026222;28;20656;-57
2022/12/30 02:38:34;;;;;;;16.73;2.27;;;9.70;99.90;;;;;;5030705;28;20177;-57
2022/12/30 02:47:03;;;;;;;21.37;1.83;;;9.70;99.90;;;;;;5017176;28;20185;-58
2022/12/30 02:49:32;;;;;;;13.77;1.90;;;9.70;99.90;;;;;;5031179;28;20667;-58
2022/12/30 02:52:14;;;;;;;15.07;2.20;;;9.80;99.90;;;;;;5030880;28;20265;-58
2022/12/30 02:54:45;;;;;;;27.37;2.53;;;9.80;99.90;;;;;;5030947;28;20174;-59
2022/12/30 02:57:26;;;;;;;23.20;2.53;;;9.80;99.90;;;;;;5030146;28;20708;-58
2022/12/30 03:05:53;;;;;;;17.37;1.80;;;9.70;99.90;;;;;;5029991;28;20196;-58
2022/12/30 03:08:24;;;;;;;15.37;2.07;;;9.70;99.90;;;;;;5029539;28;20170;-58
2022/12/30 03:11:18;;;;;;;19.67;2.13;;;9.70;99.90;;;;;;5029937;28;20177;-58
2022/12/30 03:14:09;;;;;;;19.80;2.90;;;9.70;99.90;;;;;;5030242;28;20549;-58
2022/12/30 03:16:51;;;;;;;22.07;2.60;;;9.60;99.90;;;;;;5027155;28;20177;-58
2022/12/30 03:19:20;;;;;;;20.83;1.83;;;9.60;99.90;;;;;;5033193;28;20192;-58
2022/12/30 03:21:49;;;;;;;10.93;1.73;;;9.60;99.90;;;;;;5033945;28;20188;-59
2022/12/30 03:27:06;;;;;;;16.57;1.90;;;9.60;99.90;;;;;;5019272;28;20212;-59
2022/12/30 03:29:36;;;;;;;21.17;2.77;;;9.60;99.90;;;;;;5033814;28;20213;-59
2022/12/30 03:32:05;;;;;;;21.10;2.53;;;9.70;99.90;;;;;;5034659;28;20169;-59
2022/12/30 03:34:31;;;;;;;19.77;2.63;;;9.60;99.90;;;;;;5034632;28;20174;-59
2022/12/30 03:37:06;;;;;;;21.10;1.97;;;9.60;99.90;;;;;;5034938;28;20182;-58
2022/12/30 03:39:36;;;;;;;16.57;2.20;;;9.60;99.90;;;;;;5034533;28;20248;-58
2022/12/30 03:42:04;;;;;;;19.07;2.37;;;9.70;99.90;;;;;;5034492;28;20213;-59
2022/12/30 03:44:31;;;;;;;16.83;2.47;;;9.70;99.90;;;;;;5034535;28;20255;-57
2022/12/30 03:46:56;;;;;;;14.13;1.90;;;9.60;99.90;;;;;;5034203;28;20189;-57
2022/12/30 03:49:22;;;;;;;21.43;2.23;;;9.70;99.90;;;;;;5034308;28;20193;-56
2022/12/30 03:51:48;;;;;;;13.90;1.93;;;9.70;99.90;;;;;;5034544;28;20255;-57
2022/12/30 03:54:14;;;;;;;17.13;2.57;;;9.70;99.90;;;;;;5034448;28;20664;-57
2022/12/30 03:56:40;;;;;;;15.37;2.90;;;9.70;99.90;;;;;;5034250;28;20231;-57
2022/12/30 03:59:05;;;;;;;20.17;2.63;;;9.70;99.90;;;;;;5033937;28;20477;-56
2022/12/30 04:01:31;;;;;;;12.17;1.53;;;9.70;99.90;;;;;;5033718;28;20186;-57
2022/12/30 04:03:57;;;;;;;10.40;2.00;;;9.80;99.90;;;;;;5033391;28;20261;-57
2022/12/30 04:06:23;;;;;;;8.37;1.83;;;9.80;99.90;;;;;;5032789;28;20185;-57
2022/12/30 04:08:48;;;;;;;14.90;1.73;;;9.80;99.90;;;;;;5033871;28;20177;-58
2022/12/30 04:11:14;;;;;;;20.47;2.30;;;9.40;99.90;;;;;;5031560;28;20174;-58
2022/12/30 04:13:40;;;;;;;9.97;1.97;;;9.80;99.90;;;;;;5028063;28;20285;-58
2022/12/30 04:16:06;;;;;;;15.63;3.40;;;9.80;99.90;;;;;;5031501;28;20261;-57
2022/12/30 04:18:31;;;;;;;11.70;2.17;;;9.90;99.90;;;;;;5032771;28;20216;-58
2022/12/30 04:20:57;;;;;;;9.90;1.70;;;9.80;99.90;;;;;;5032626;28;20193;-58
2022/12/30 04:23:23;;;;;;;20.60;2.43;;;;;;;;;;5033492;28;20259;-57
2022/12/30 04:25:49;;;;;;;15.40;1.90;;;9.90;99.90;;;;;;5032918;28;20216;-57
2022/12/30 04:28:14;;;;;;;15.57;2.03;;;9.90;99.90;;;;;;5032259;28;20182;-58
2022/12/30 04:30:40;;;;;;;17.40;2.27;;;9.90;99.90;;;;;;5033263;28;20181;-58
2022/12/30 04:33:06;;;;;;;23.63;2.57;;;10.00;99.90;;;;;;5033301;28;20174;-58
2022/12/30 04:35:31;;;;;;;15.07;1.87;;;10.00;99.90;;;;;;5033263;28;20181;-58
2022/12/30 04:37:57;;;;;;;15.13;2.40;;;9.90;99.90;;;;;;5033281;28;20218;-58
2022/12/30 04:40:23;;;;;;;3.57;1.33;;;10.50;99.90;;;;;;5033190;28;20217;-59
2022/12/30 04:42:48;;;;;;;10.00;1.40;;;10.00;99.90;;;;;;5033149;28;20600;-58
2022/12/30 04:45:14;;;;;;;12.93;2.23;;;10.00;99.90;;;;;;5033221;28;20217;-58
2022/12/30 04:47:40;;;;;;;22.87;2.97;;;10.00;99.90;;;;;;5033073;28;20632;-57
2022/12/30 04:50:07;;;;;;;19.73;2.40;;;10.00;99.90;;;;;;5031401;28;20186;-57
2022/12/30 04:52:33;;;;;;;12.47;2.10;;;9.90;99.90;;;;;;5032451;28;20220;-57
2022/12/30 04:54:59;;;;;;;20.37;2.27;;;10.00;99.90;;;;;;5032690;28;20178;-58
2022/12/30 04:57:25;;;;;;;12.07;3.00;;;9.90;99.90;;;;;;5023845;28;20596;-57
2022/12/30 04:59:50;;;;;;;11.57;2.27;;;9.90;99.90;;;;;;5027265;28;20189;-55
2022/12/30 05:02:16;;;;;;;9.03;1.67;;;9.90;99.90;;;;;;5032332;28;20659;-57
2022/12/30 05:04:42;;;;;;;22.17;2.53;;;9.90;99.90;;;;;;5014859;28;20233;-56
2022/12/30 05:07:07;;;;;;;10.87;1.90;;;10.00;99.90;;;;;;5023741;28;20198;-56
2022/12/30 05:09:33;;;;;;;19.77;2.63;;;10.00;99.90;;;;;;5032740;28;20284;-57
2022/12/30 05:11:59;;;;;;;15.13;2.20;;;10.00;99.90;;;;;;5031881;28;20178;-57
2022/12/30 05:14:24;;;;;;;18.13;2.43;;;10.00;99.90;;;;;;5032088;28;20273;-57
2022/12/30 05:16:50;;;;;;;14.80;2.37;;;10.00;99.90;;;;;;5032199;28;20771;-57
2022/12/30 05:19:15;;;;;;;18.33;1.83;;;10.10;99.90;;;;;;5032625;28;20520;-57
2022/12/30 05:21:41;;;;;;;15.57;1.97;;;10.10;99.90;;;;;;5032345;28;20174;-58
2022/12/30 05:26:53;;;;;;;26.10;2.77;;;10.00;99.90;;;;;;5032145;28;20257;-58
2022/12/30 05:29:19;;;;;;;10.00;1.40;;;10.00;99.90;;;;;;5031878;28;20910;-58
2022/12/30 05:31:45;;;;;;;12.70;2.00;;;10.10;99.90;;;;;;5032004;28;20186;-58
2022/12/30 05:34:10;;;;;;;19.93;2.60;;;10.10;99.90;;;;;;5031945;28;20251;-57
2022/12/30 05:36:36;;;;;;;17.13;2.37;;;10.10;99.90;;;;;;5030972;28;20210;-57
2022/12/30 05:39:02;;;;;;;19.20;2.67;;;10.10;99.90;;;;;;5031392;28;20232;-57
2022/12/30 05:41:27;;;;;;;19.43;2.17;;;10.10;99.90;;;;;;5031880;28;20177;-57
2022/12/30 05:43:53;;;;;;;17.80;2.70;;;10.10;99.90;;;;;;5031743;28;20553;-56
2022/12/30 05:46:20;;;;;;;10.90;1.90;;;10.10;99.90;;;;;;5030234;28;20184;-56
2022/12/30 05:48:45;;;;;;;29.43;2.83;;;10.10;99.90;;;;;;5031767;28;20186;-56
2022/12/30 05:51:11;;;;;;;19.70;2.50;;;10.10;99.90;;;;;;5031760;28;20257;-57
2022/12/30 05:53:36;;;;;;;12.67;2.10;;;10.10;99.90;;;;;;5030887;28;20708;-57
2022/12/30 05:56:03;;;;;;;16.67;2.23;;;10.10;99.90;;;;;;5031859;28;20173;-57
2022/12/30 05:58:28;;;;;;;21.93;2.60;;;10.00;99.90;;;;;;5013055;28;20287;-57
2022/12/30 06:00:59;;;;;;;17.00;2.47;;;10.00;99.90;;;;;;5017725;28;20255;-57
2022/12/30 06:03:24;;;;;;;17.40;1.63;;;9.90;99.90;;;;;;5023516;28;20244;-57
2022/12/30 06:06:03;;;;;;;15.40;1.80;;;9.90;99.90;;;;;;5028457;28;20258;-57
2022/12/30 06:08:28;;;;;;;14.70;2.03;;;9.80;99.90;;;;;;5030822;28;20257;-57
2022/12/30 06:10:54;;;;;;;16.23;2.73;;;9.80;99.90;;;;;;5030031;28;20213;-57
2022/12/30 06:13:20;;;;;;;19.40;2.63;;;9.80;99.90;;;;;;5031285;28;20253;-57
2022/12/30 06:15:46;;;;;;;18.83;3.03;;;9.60;99.90;;;;;;5031201;28;20190;-57
2022/12/30 06:18:12;;;;;;;19.90;2.77;;;9.70;99.90;;;;;;5031014;28;20196;-56
2022/12/30 06:20:37;;;;;;;22.30;2.77;;;9.60;99.90;;;;;;5031728;28;20281;-58
2022/12/30 06:23:04;;;;;;;21.03;2.90;;;9.60;99.90;;;;;;5031066;28;20189;-58
2022/12/30 06:25:31;;;;;;;18.40;2.70;;;9.60;99.90;;;;;;5030880;28;20509;-58
2022/12/30 06:27:57;;;;;;;8.37;1.40;;;7.60;99.90;;;;;;5031122;28;20174;-58
2022/12/30 06:30:22;;;;;;;12.50;1.80;;;9.50;99.90;;;;;;5030642;28;20591;-58
2022/12/30 06:32:48;;;;;;;12.53;1.97;;;9.50;99.90;;;;;;5031072;28;20174;-58
2022/12/30 06:35:14;;;;;;;10.40;1.30;;;9.50;99.90;;;;;;5031402;28;20575;-57
2022/12/30 06:37:39;;;;;;;9.83;0.90;;;9.60;99.90;;;;;;5030870;28;20197;-57
2022/12/30 06:40:06;;;;;;;15.10;1.90;;;9.60;99.90;;;;;;5029532;28;20181;-57
2022/12/30 06:42:32;;;;;;;7.43;1.67;;;9.60;99.90;;;;;;5031085;28;20217;-57
2022/12/30 06:44:57;;;;;;;8.50;1.37;;;9.50;99.90;;;;;;5030851;28;20690;-58
2022/12/30 06:47:23;;;;;;;10.93;1.17;;;9.50;99.90;;;;;;5029888;28;20324;-58
2022/12/30 06:49:49;;;;;;;10.20;1.37;;;9.50;99.90;;;;;;5030254;28;20182;-57
2022/12/30 06:52:15;;;;;;;16.93;1.50;;;9.40;99.90;;;;;;5030518;28;20683;-57
2022/12/30 06:54:40;;;;;;;15.37;1.70;;;9.40;99.90;;;;;;5030777;28;20228;-57
2022/12/30 06:57:06;;;;;;;6.47;1.00;;;9.40;99.90;;;;;;5030540;28;20224;-56
2022/12/30 06:59:31;;;;;;;8.93;1.23;;;9.40;99.90;;;;;;5023152;28;20233;-57
2022/12/30 07:01:57;;;;;;;10.10;1.40;;;9.40;99.90;;;;;;5030527;28;20591;-56
2022/12/30 07:04:23;;;;;;;11.00;1.47;;;9.30;99.90;;;;;;5029854;28;20233;-57
2022/12/30 07:06:48;;;;;;;1.33;0.53;;;9.30;99.90;;;;;;5028785;28;20659;-57
2022/12/30 07:09:15;;;;;;;11.13;1.07;;;9.20;99.90;;;;;;5029899;28;20691;-57
2022/12/30 07:11:40;;;;;;;8.70;1.20;;;9.20;99.90;;;;;;5030373;28;20178;-57
2022/12/30 07:14:06;;;;;;;11.23;1.30;;;9.20;99.90;;;;;;5030469;28;20257;-57
2022/12/30 07:16:32;;;;;;;6.37;0.93;;;9.10;99.90;;;;;;5030397;28;20170;-57
2022/12/30 07:18:57;;;;;;;6.87;0.83;;;9.00;99.90;;;;;;5030392;28;20182;-57
2022/12/30 07:21:23;;;;;;;7.50;1.37;;;9.10;99.90;;;;;;5030542;28;20174;-57
2022/12/30 07:23:49;;;;;;;8.40;1.23;;;9.10;99.90;;;;;;5028879;28;20254;-57
2022/12/30 07:26:14;;;;;;;9.93;1.33;;;9.00;99.90;;;;;;5029941;28;20181;-58
2022/12/30 07:28:40;;;;;;;7.47;1.10;;;9.10;99.90;;;;;;5030639;28;20170;-55
2022/12/30 07:31:05;;;;;;;8.10;1.00;;;9.00;99.90;;;;;;5030323;28;20652;-55
2022/12/30 07:33:31;;;;;;;8.80;0.93;;;9.10;99.90;;;;;;5028761;28;20260;-57
2022/12/30 07:35:57;;;;;;;11.07;1.30;;;9.10;99.90;;;;;;5028964;28;20182;-55
2022/12/30 07:38:22;;;;;;;7.90;1.00;;;9.10;99.90;;;;;;5030551;28;20166;-55
2022/12/30 07:40:48;;;;;;;7.20;1.60;;;9.00;99.90;;;;;;5030259;28;20197;-55
2022/12/30 07:43:13;;;;;;;5.80;1.20;;;9.10;99.90;;;;;;5030306;28;20185;-55
2022/12/30 07:45:39;;;;;;;7.73;0.80;;;9.20;99.90;;;;;;5030558;28;20182;-55
2022/12/30 07:48:04;;;;;;;10.53;0.90;;;9.20;99.90;;;;;;5029963;28;20174;-56
2022/12/30 07:50:30;;;;;;;5.37;1.30;;;9.20;99.90;;;;;;5030532;28;20177;-56
2022/12/30 07:52:56;;;;;;;8.30;1.20;;;9.20;99.90;;;;;;5030265;28;20171;-55
2022/12/30 07:55:21;;;;;;;9.53;1.53;;;9.10;99.90;;;;;;5022809;28;20201;-56
2022/12/30 07:57:47;;;;;;;2.00;0.70;;;9.30;99.90;;;;;;5029442;28;20182;-55
2022/12/30 08:00:13;;;;;;;4.50;0.63;;;9.30;99.90;;;;;;5028691;28;20197;-55
2022/12/30 08:02:39;;;;;;;12.33;1.60;;;9.30;99.90;;;;;;5031845;28;20186;-55
2022/12/30 08:05:06;;;;;;;6.70;0.83;;;9.30;99.90;;;;;;5033380;28;20341;-55
2022/12/30 08:07:33;;;;;;;4.90;1.00;;;9.40;99.90;;;;;;5033938;28;20174;-55
2022/12/30 08:09:59;;;;;;;7.57;0.80;;;9.40;99.90;;;;;;5016369;28;20174;-56
2022/12/30 08:12:25;;;;;;;2.80;0.60;;;9.40;99.90;;;;;;5034096;28;20173;-55
2022/12/30 08:14:51;;;;;;;7.87;0.93;;;9.20;99.90;;;;;;5032447;28;20520;-58
2022/12/30 08:17:17;;;;;;;3.47;0.67;;;9.40;99.90;;;;;;5024523;28;20189;-58
2022/12/30 08:19:42;;;;;;;2.00;0.63;;;9.40;99.90;;;;;;5032201;28;20177;-59
2022/12/30 08:22:08;;;;;;;4.70;0.63;;;9.30;99.90;;;;;;5025393;28;20180;-59
2022/12/30 08:24:34;;;;;;;6.97;0.60;;;9.40;99.90;;;;;;5033508;28;20213;-59
2022/12/30 08:26:59;;;;;;;5.30;0.83;;;9.40;99.90;;;;;;5033400;28;20185;-59
2022/12/30 08:29:25;;;;;;;2.33;0.67;;;9.30;99.90;;;;;;5033698;28;20184;-59
2022/12/30 08:31:50;;;;;;;4.10;0.80;;;9.40;99.90;;;;;;5033617;28;20231;-60
2022/12/30 08:34:18;;;;;;;3.10;0.63;;;9.40;99.90;;;;;;5032284;28;20178;-60
2022/12/30 08:36:44;;;;;;;3.37;0.80;;;9.40;99.90;;;;;;5033334;28;20182;-59
2022/12/30 08:39:10;;;;;;;1.70;0.30;;;9.70;99.90;;;;;;5033645;28;20174;-59
2022/12/30 08:41:39;;;;;;;2.83;0.47;;;9.60;99.90;;;;;;5033371;28;20201;-59
2022/12/30 08:44:05;;;;;;;2.17;0.70;;;9.60;99.90;;;;;;5032668;28;20206;-59
2022/12/30 08:46:33;;;;;;;3.57;0.43;;;9.70;99.90;;;;;;5033400;28;20328;-58
2022/12/30 08:48:59;;;;;;;4.67;0.53;;;9.70;99.90;;;;;;5031782;28;20181;-57
2022/12/30 08:51:26;;;;;;;0.20;0.20;;;9.90;99.90;;;;;;5026774;28;20679;-59
2022/12/30 08:53:51;;;;;;;2.73;0.53;;;9.90;99.90;;;;;;5032904;28;20682;-58
2022/12/30 08:56:23;;;;;;;2.67;1.03;;;9.90;99.90;;;;;;5032954;28;20170;-58
2022/12/30 08:58:50;;;;;;;1.43;0.30;;;9.90;99.90;;;;;;5033163;28;20177;-59
2022/12/30 09:01:19;;;;;;;1.20;0.20;;;10.00;99.90;;;;;;5026035;28;20192;-58
2022/12/30 09:03:45;;;;;;;1.17;0.30;;;10.10;99.90;;;;;;5032138;28;20242;-58
2022/12/30 09:06:13;;;;;;;2.10;0.40;;;10.10;99.90;;;;;;5033063;28;20632;-59
2022/12/30 09:08:39;;;;;;;3.10;0.67;;;10.10;99.90;;;;;;5033162;28;20174;-59
2022/12/30 09:11:08;;;;;;;2.83;0.40;;;10.10;99.90;;;;;;5033007;28;20201;-59
2022/12/30 09:13:38;;;;;;;2.43;0.40;;;10.10;99.90;;;;;;5032066;28;20193;-59
2022/12/30 09:16:06;;;;;;;1.60;0.47;;;10.20;99.90;;;;;;5030494;28;20178;-59
2022/12/30 09:18:32;;;;;;;1.80;0.43;;;10.20;99.90;;;;;;5032657;28;20178;-60
2022/12/30 09:20:57;;;;;;;0.70;0.20;;;10.20;99.90;;;;;;5032775;28;20174;-60
2022/12/30 09:23:23;;;;;;;1.13;0.30;;;10.10;99.90;;;;;;5032363;28;20651;-60
2022/12/30 09:25:49;;;;;;;1.03;0.30;;;10.30;99.90;;;;;;5030833;28;20619;-60
2022/12/30 09:28:14;;;;;;;0.77;0.23;;;10.30;99.90;;;;;;5032255;28;20689;-61
2022/12/30 09:30:40;;;;;;;3.53;0.93;;;10.30;99.90;;;;;;5032230;28;20197;-60
2022/12/30 09:33:06;;;;;;;1.07;0.57;;;10.50;99.90;;;;;;5032105;28;20181;-60
2022/12/30 09:35:32;;;;;;;2.30;0.30;;;10.50;99.90;;;;;;5032106;28;20178;-60
2022/12/30 09:37:58;;;;;;;1.87;0.40;;;10.50;99.90;;;;;;5032172;28;20690;-60
2022/12/30 09:41:18;;;;;;;2.33;0.30;;;10.70;99.90;;;;;;5027338;28;20565;-59
2022/12/30 09:44:01;;;;;;;2.10;0.40;;;10.80;99.90;;;;;;4964215;28;20212;-60
2022/12/30 09:46:26;;;;;;;5.90;0.60;;;10.90;99.90;;;;;;5026801;28;20204;-59
2022/12/30 09:49:18;;;;;;;7.93;0.87;;;11.00;99.90;;;;;;5031802;28;20174;-59
2022/12/30 09:51:47;;;;;;;2.10;0.50;;;11.10;99.90;;;;;;5032340;28;20197;-59
2022/12/30 09:54:16;;;;;;;3.53;0.53;;;11.40;99.90;;;;;;5031778;28;20205;-59
2022/12/30 09:56:47;;;;;;;4.60;0.80;;;11.50;99.90;;;;;;5031722;28;20170;-60
2022/12/30 09:59:28;;;;;;;5.50;0.60;;;11.60;99.90;;;;;;5021428;28;20174;-59
2022/12/30 10:02:06;;;;;;;4.73;0.87;;;11.70;99.90;;;;;;5031023;28;20678;-59
2022/12/30 10:04:37;;;;;;;3.73;1.17;;;11.80;99.90;;;;;;5030047;28;20225;-57
2022/12/30 10:07:14;;;;;;;4.40;0.70;;;12.00;99.90;;;;;;5031490;28;20170;-57
2022/12/30 10:09:58;;;;;;;3.50;0.50;;;12.30;99.90;;;;;;5030930;28;20177;-56
2022/12/30 10:12:52;;;;;;;3.10;0.60;;;12.90;99.90;;;;;;5031634;28;20185;-56
2022/12/30 10:15:35;;;;;;;4.33;0.90;;;12.90;99.90;;;;;;5031503;28;20181;-55
2022/12/30 10:18:15;;;;;;;5.67;0.70;;;13.00;99.90;;;;;;5031436;28;20181;-55
2022/12/30 10:21:07;;;;;;;6.37;0.77;;;12.90;99.90;;;;;;5030521;28;20664;-54
2022/12/30 10:23:45;;;;;;;1.83;0.67;;;12.90;99.90;;;;;;5031271;28;20202;-54
2022/12/30 10:26:15;;;;;;;1.47;0.30;;;13.00;99.90;;;;;;5030671;28;20240;-55
2022/12/30 10:29:09;;;;;;;3.87;0.27;;;13.00;99.90;;;;;;5030036;28;20184;-54
2022/12/30 10:31:37;;;;;;;1.40;0.30;;;13.20;99.90;;;;;;5011460;28;20179;-56
2022/12/30 10:34:35;;;;;;;2.70;0.47;;;13.20;99.90;;;;;;5018313;28;20177;-55
2022/12/30 10:37:10;;;;;;;2.10;0.30;;;13.20;99.90;;;;;;4998024;28;20185;-56
2022/12/30 10:39:39;;;;;;;3.33;0.50;;;13.20;99.90;;;;;;5023698;28;20341;-55
2022/12/30 10:42:29;;;;;;;0.50;0.27;;;13.20;99.90;;;;;;5031166;28;20178;-55
2022/12/30 10:45:04;;;;;;;3.23;0.70;;;13.10;99.90;;;;;;5029740;28;20711;-55
2022/12/30 10:47:48;;;;;;;1.03;0.20;;;13.00;99.90;;;;;;5030889;28;20197;-55
2022/12/30 10:50:33;;;;;;;0.30;0.20;;;12.90;99.90;;;;;;5027817;28;20209;-56
2022/12/30 10:53:01;;;;;;;1.10;0.30;;;12.80;99.90;;;;;;5011311;28;20261;-56
2022/12/30 10:55:30;;;;;;;1.63;0.50;;;12.80;99.90;;;;;;5011421;28;20186;-56
2022/12/30 10:58:04;;;;;;;0.73;0.30;;;12.80;99.90;;;;;;5011369;28;20185;-57
2022/12/30 11:00:37;;;;;;;0.70;0.20;;;12.80;99.90;;;;;;5017539;28;20161;-56
2022/12/30 11:03:12;;;;;;;0.87;0.30;;;12.90;99.90;;;;;;5030715;28;20711;-56
2022/12/30 11:05:38;;;;;;;1.67;0.10;;;12.80;99.90;;;;;;5030990;28;20192;-55
2022/12/30 11:08:23;;;;;;;2.33;0.40;;;12.90;99.90;;;;;;5030861;28;20166;-56
2022/12/30 11:11:04;;;;;;;2.03;0.20;;;12.90;99.90;;;;;;5030966;28;20256;-55
2022/12/30 11:16:22;;;;;;;0.40;0.30;;;12.90;99.90;;;;;;5030769;28;20185;-55
2022/12/30 11:18:48;;;;;;;1.13;0.40;;;13.10;99.90;;;;;;5030633;28;20177;-55
2022/12/30 11:21:24;;;;;;;0.60;0.20;;;12.90;99.90;;;;;;5030188;28;20181;-56
2022/12/30 11:23:56;;;;;;;0.47;0.10;;;12.90;99.90;;;;;;5010953;28;20550;-55
2022/12/30 11:26:25;;;;;;;4.50;0.40;;;12.90;99.90;;;;;;5010800;28;20182;-55
2022/12/30 11:28:54;;;;;;;1.60;0.30;;;12.90;99.90;;;;;;5010904;28;20656;-55
2022/12/30 11:31:20;;;;;;;0.97;0.27;;;12.90;99.90;;;;;;5010991;28;20171;-55
2022/12/30 11:33:49;;;;;;;1.73;0.30;;;12.90;99.90;;;;;;5015377;28;20556;-57
2022/12/30 11:36:30;;;;;;;1.53;0.20;;;12.90;99.90;;;;;;5025555;28;20201;-58
2022/12/30 11:39:06;;;;;;;2.67;0.30;;;13.00;99.90;;;;;;5034512;28;20165;-56
2022/12/30 11:41:34;;;;;;;4.30;0.50;;;13.20;99.90;;;;;;5034114;28;20724;-56
2022/12/30 11:43:59;;;;;;;4.67;0.80;;;13.10;99.90;;;;;;5034126;28;20217;-58
2022/12/30 11:46:34;;;;;;;3.37;0.47;;;13.20;99.90;;;;;;5034221;28;20178;-59
2022/12/30 11:49:02;;;;;;;3.50;0.63;;;13.40;99.90;;;;;;5034385;28;20201;-59
2022/12/30 11:51:34;;;;;;;4.17;0.63;;;13.80;99.90;;;;;;5033869;28;20558;-59
2022/12/30 11:54:12;;;;;;;5.47;1.00;;;14.40;99.90;;;;;;5034127;28;20170;-59
2022/12/30 11:56:50;;;;;;;6.77;1.00;;;14.20;99.90;;;;;;5034108;28;20220;-59
2022/12/30 11:59:18;;;;;;;8.07;1.30;;;14.20;99.90;;;;;;5034195;28;20204;-59
2022/12/30 12:01:47;;;;;;;8.10;1.20;;;14.20;99.90;;;;;;5034123;28;20261;-59
2022/12/30 12:04:32;;;;;;;9.27;1.27;;;15.10;99.90;;;;;;5033462;28;20226;-59
2022/12/30 12:06:57;;;;;;;4.97;0.90;;;14.80;99.90;;;;;;5033644;28;20268;-59
2022/12/30 12:09:34;;;;;;;6.57;1.13;;;16.40;99.90;;;;;;5033982;28;20265;-59
2022/12/30 12:12:05;;;;;;;11.50;1.67;;;16.90;99.90;;;;;;5033573;28;20186;-59
2022/12/30 12:14:53;;;;;;;10.40;1.73;;;17.10;99.90;;;;;;5032735;28;20210;-59
2022/12/30 12:17:43;;;;;;;6.40;1.48;;;17.80;99.90;;;;;;5021584;28;20174;-55
2022/12/30 12:20:21;;;;;;;10.90;2.00;;;17.60;99.90;;;;;;5014113;28;20190;-56
2022/12/30 12:23:14;;;;;;;11.73;2.13;;;15.30;99.90;;;;;;5014075;28;20174;-57
2022/12/30 12:26:06;;;;;;;10.38;1.25;;;14.00;99.90;;;;;;5028342;28;20269;-59
2022/12/30 12:28:36;;;;;;;2.20;0.63;;;13.90;99.90;;;;;;5024889;28;20174;-58
2022/12/30 12:31:29;;;;;;;5.63;1.17;;;13.60;99.90;;;;;;5024964;28;20198;-58
2022/12/30 12:34:32;;;;;;;10.33;1.43;;;13.40;99.90;;;;;;5016425;28;20257;-59
2022/12/30 12:37:24;;;;;;;9.90;1.43;;;13.40;99.90;;;;;;5022276;28;20173;-59
2022/12/30 12:40:04;;;;;;;11.53;1.60;;;13.40;99.90;;;;;;5033443;28;20651;-59
2022/12/30 12:42:48;;;;;;;11.70;1.30;;;13.50;99.90;;;;;;5032182;28;20514;-59
2022/12/30 12:45:29;;;;;;;8.57;1.33;;;13.50;99.90;;;;;;5033106;28;20209;-59
2022/12/30 12:48:16;;;;;;;11.13;1.23;;;13.50;99.90;;;;;;5032000;28;20594;-59
2022/12/30 12:50:55;;;;;;;14.37;1.70;;;14.00;99.90;;;;;;5023283;28;20182;-59
2022/12/30 12:53:45;;;;;;;11.03;1.53;;;13.50;99.90;;;;;;5033309;28;20558;-59
2022/12/30 12:56:47;;;;;;;5.97;1.00;;;13.70;99.90;;;;;;5033320;28;20182;-59
2022/12/30 12:59:21;;;;;;;9.53;1.37;;;13.50;99.90;;;;;;5031797;28;20288;-60
2022/12/30 13:02:21;;;;;;;6.40;1.00;;;13.60;99.90;;;;;;5019514;28;20178;-59
2022/12/30 13:05:15;;;;;;;7.43;1.47;;;13.80;99.90;;;;;;5004793;28;20264;-59
2022/12/30 13:07:58;;;;;;;12.67;1.80;;;14.00;99.90;;;;;;5030786;28;20178;-60
2022/12/30 13:10:43;;;;;;;11.93;1.70;;;14.20;99.90;;;;;;5032588;28;20244;-59
2022/12/30 13:13:14;;;;;;;11.00;1.10;;;13.80;99.90;;;;;;5013059;28;20270;-59
2022/12/30 13:15:44;;;;;;;9.37;0.90;;;13.70;99.90;;;;;;5013066;28;20170;-58
2022/12/30 13:18:20;;;;;;;9.37;1.83;;;13.60;99.90;;;;;;5013195;28;20174;-59
2022/12/30 13:20:53;;;;;;;7.43;0.97;;;13.40;99.90;;;;;;5012888;28;20175;-59
2022/12/30 13:23:23;;;;;;;9.93;1.30;;;13.10;99.90;;;;;;5012732;28;20249;-59
2022/12/30 13:25:58;;;;;;;10.77;1.43;;;12.90;99.90;;;;;;5008869;28;20225;-60
2022/12/30 13:28:27;;;;;;;6.67;0.93;;;12.70;99.90;;;;;;5013278;28;20193;-60
2022/12/30 13:31:21;;;;;;;7.03;1.30;;;12.50;99.90;;;;;;5031651;28;20240;-59
2022/12/30 13:34:01;;;;;;;7.33;1.13;;;12.40;99.90;;;;;;5031826;28;20186;-59
2022/12/30 13:37:14;;;;;;;7.60;1.07;;;12.40;99.90;;;;;;5032311;28;20165;-59
2022/12/30 13:39:48;;;;;;;7.57;1.13;;;12.30;99.90;;;;;;4986467;28;20217;-59
2022/12/30 13:42:32;;;;;;;10.40;1.30;;;12.30;99.90;;;;;;5032126;28;20189;-59
2022/12/30 13:44:59;;;;;;;9.73;1.20;;;12.20;99.90;;;;;;5031086;28;20660;-60
2022/12/30 13:47:33;;;;;;;5.37;0.87;;;12.10;99.90;;;;;;5030835;28;20172;-59
2022/12/30 13:50:01;;;;;;;7.70;1.00;;;12.20;99.90;;;;;;5015830;28;20190;-60
2022/12/30 13:52:29;;;;;;;5.13;0.77;;;12.10;99.90;;;;;;5032492;28;20584;-60
2022/12/30 13:54:57;;;;;;;6.90;0.87;;;12.10;99.90;;;;;;5031846;28;20610;-60
2022/12/30 13:57:35;;;;;;;4.13;0.90;;;12.10;99.90;;;;;;5018764;28;20178;-59
2022/12/30 14:00:13;;;;;;;1.77;0.53;;;12.00;99.90;;;;;;5026753;28;20200;-59
2022/12/30 14:03:17;;;;;;;2.30;0.40;;;12.00;99.90;;;;;;5030977;28;20181;-62